Time;durP1;ratioP1;P1;durP2;ratioP2;P2;SDS_P1;SDS_P2;PMS_P1;PMS_P2;Temp;Humidity;BMP_temperature;BMP_pressure;BME280_temperature;BME280_humidity;BME280_pressure;Samples;Min_cycle;Max_cycle;Signal;HPM_P1;HPM_P2
2022/03/26 00:01:37;;;;;;;45.10;24.40;;;5.50;49.30;;;;;;5074249;28;20939;-59
2022/03/26 00:04:03;;;;;;;50.43;25.43;;;5.50;49.40;;;;;;5085847;28;20181;-61
2022/03/26 00:06:29;;;;;;;46.23;23.70;;;5.40;49.50;;;;;;5081167;28;20216;-59
2022/03/26 00:08:54;;;;;;;49.63;24.83;;;5.30;50.20;;;;;;5091332;28;20208;-59
2022/03/26 00:11:20;;;;;;;54.47;26.27;;;5.30;49.80;;;;;;5087939;28;20843;-60
2022/03/26 00:13:46;;;;;;;43.63;23.53;;;5.20;49.90;;;;;;5090401;28;20178;-59
2022/03/26 00:16:11;;;;;;;51.03;24.60;;;5.20;50.10;;;;;;5090069;28;20182;-59
2022/03/26 00:18:38;;;;;;;47.73;24.90;;;5.20;50.20;;;;;;5082578;28;20273;-59
2022/03/26 00:21:04;;;;;;;49.63;26.33;;;5.10;50.30;;;;;;5074386;28;20275;-59
2022/03/26 00:23:30;;;;;;;57.23;27.73;;;5.10;50.40;;;;;;5088277;28;20435;-59
2022/03/26 00:25:58;;;;;;;54.57;24.87;;;5.10;50.40;;;;;;5079864;28;20818;-60
2022/03/26 00:28:24;;;;;;;48.13;25.77;;;5.10;50.50;;;;;;5081232;28;20216;-59
2022/03/26 00:30:50;;;;;;;54.50;26.10;;;5.10;51.10;;;;;;5086670;28;20545;-60
2022/03/26 00:33:16;;;;;;;47.43;26.17;;;5.00;50.70;;;;;;5078141;28;20470;-60
2022/03/26 00:35:42;;;;;;;46.07;25.87;;;5.00;50.70;;;;;;5086193;28;20419;-59
2022/03/26 00:38:08;;;;;;;55.00;25.37;;;5.00;50.60;;;;;;5080853;28;20543;-61
2022/03/26 00:40:34;;;;;;;52.70;25.20;;;5.00;50.80;;;;;;5079194;28;21430;-60
2022/03/26 00:43:00;;;;;;;47.13;23.70;;;4.90;50.70;;;;;;5083291;28;21163;-59
2022/03/26 00:45:28;;;;;;;53.30;24.37;;;4.90;50.90;;;;;;5086481;28;20473;-60
2022/03/26 00:47:57;;;;;;;45.43;24.67;;;4.90;51.00;;;;;;5080580;28;20190;-60
2022/03/26 00:50:23;;;;;;;50.10;24.40;;;4.90;51.20;;;;;;5083390;28;20455;-60
2022/03/26 00:52:49;;;;;;;45.07;23.33;;;4.80;51.00;;;;;;5089580;28;21084;-60
2022/03/26 00:55:15;;;;;;;47.40;24.47;;;4.80;51.50;;;;;;5089483;28;20896;-60
2022/03/26 00:57:40;;;;;;;47.80;24.40;;;4.80;51.10;;;;;;5086227;28;20542;-60
2022/03/26 01:00:08;;;;;;;45.93;23.97;;;4.70;50.90;;;;;;5078820;28;20275;-60
2022/03/26 01:02:34;;;;;;;44.83;22.30;;;4.70;51.00;;;;;;5078341;28;20182;-59
2022/03/26 01:05:00;;;;;;;44.70;22.43;;;4.70;51.00;;;;;;5076692;28;20510;-60
2022/03/26 01:07:26;;;;;;;40.27;21.97;;;4.70;51.20;;;;;;5083403;28;20260;-60
2022/03/26 01:09:54;;;;;;;40.50;21.73;;;4.60;51.20;;;;;;5086402;28;20465;-60
2022/03/26 01:12:20;;;;;;;43.77;22.47;;;4.60;51.20;;;;;;5087009;28;20426;-60
2022/03/26 01:14:46;;;;;;;45.03;22.80;;;4.60;51.30;;;;;;5089161;28;20436;-61
2022/03/26 01:17:12;;;;;;;44.30;22.70;;;4.50;51.20;;;;;;5086072;28;20428;-60
2022/03/26 01:19:38;;;;;;;50.30;24.23;;;4.50;51.30;;;;;;5088347;28;20427;-60
2022/03/26 01:22:04;;;;;;;44.70;23.70;;;4.50;51.30;;;;;;5090579;28;20180;-60
2022/03/26 01:24:30;;;;;;;52.00;26.00;;;4.50;51.20;;;;;;5082380;28;20198;-60
2022/03/26 01:26:57;;;;;;;46.03;23.60;;;4.40;51.20;;;;;;5085829;28;20424;-59
2022/03/26 01:29:23;;;;;;;48.93;25.30;;;4.40;51.40;;;;;;5087011;28;20470;-59
2022/03/26 01:31:49;;;;;;;47.93;25.20;;;4.30;51.50;;;;;;5083178;28;20425;-60
2022/03/26 01:34:15;;;;;;;52.13;25.47;;;4.30;51.70;;;;;;5087355;28;20539;-60
2022/03/26 01:36:41;;;;;;;51.23;25.03;;;4.20;51.80;;;;;;5083938;28;20412;-60
2022/03/26 01:39:06;;;;;;;53.13;25.27;;;4.20;51.80;;;;;;5088999;28;20494;-60
2022/03/26 01:41:33;;;;;;;52.40;26.43;;;4.20;51.90;;;;;;5076713;28;20840;-60
2022/03/26 01:43:59;;;;;;;52.97;25.70;;;4.20;52.00;;;;;;5087904;28;20181;-60
2022/03/26 01:46:24;;;;;;;56.53;25.87;;;4.20;52.20;;;;;;5086004;28;20468;-60
2022/03/26 01:48:50;;;;;;;54.97;26.03;;;4.20;52.30;;;;;;5074238;28;20468;-60
2022/03/26 01:51:17;;;;;;;55.03;26.80;;;4.20;52.30;;;;;;5088823;28;20176;-60
2022/03/26 01:53:50;;;;;;;47.90;24.67;;;4.20;52.40;;;;;;5088552;28;20514;-60
2022/03/26 01:56:17;;;;;;;54.97;26.33;;;4.10;52.80;;;;;;5078937;28;21043;-60
2022/03/26 01:58:43;;;;;;;52.10;24.50;;;4.10;52.40;;;;;;5074782;28;20473;-60
2022/03/26 02:01:09;;;;;;;62.30;26.10;;;4.10;52.40;;;;;;5090194;28;20413;-59
2022/03/26 02:03:35;;;;;;;49.77;25.20;;;4.10;52.30;;;;;;5077975;28;20429;-60
2022/03/26 02:06:01;;;;;;;48.40;24.83;;;4.10;52.30;;;;;;5074499;28;20190;-59
2022/03/26 02:08:27;;;;;;;57.50;27.90;;;4.00;52.30;;;;;;5083891;28;20517;-60
2022/03/26 02:10:53;;;;;;;47.17;23.60;;;4.00;52.50;;;;;;5088861;28;20503;-60
2022/03/26 02:13:19;;;;;;;54.23;25.13;;;3.90;52.50;;;;;;5087090;28;20180;-59
2022/03/26 02:15:45;;;;;;;51.20;24.77;;;3.90;52.50;;;;;;5089193;28;20923;-59
2022/03/26 02:18:10;;;;;;;49.70;25.30;;;3.80;52.60;;;;;;5084936;28;20205;-59
2022/03/26 02:20:37;;;;;;;49.90;26.47;;;3.80;52.80;;;;;;5088961;28;20177;-59
2022/03/26 02:23:03;;;;;;;53.00;26.27;;;3.80;53.00;;;;;;5087971;28;20165;-59
2022/03/26 02:25:28;;;;;;;62.53;24.40;;;3.80;53.10;;;;;;5072849;28;20494;-59
2022/03/26 02:27:54;;;;;;;48.57;24.23;;;3.80;53.40;;;;;;5083346;28;20462;-60
2022/03/26 02:30:20;;;;;;;51.13;25.43;;;3.90;53.40;;;;;;5079877;28;20177;-59
2022/03/26 02:32:46;;;;;;;52.80;24.60;;;3.80;53.20;;;;;;5080299;28;20555;-59
2022/03/26 02:35:12;;;;;;;49.23;25.33;;;3.80;53.20;;;;;;5081643;28;20514;-60
2022/03/26 02:37:38;;;;;;;45.83;24.07;;;3.80;53.20;;;;;;5085053;28;21069;-60
2022/03/26 02:40:07;;;;;;;50.07;25.10;;;3.80;53.30;;;;;;5079409;28;20221;-59
2022/03/26 02:42:34;;;;;;;46.50;23.93;;;3.70;53.30;;;;;;5077185;28;20940;-59
2022/03/26 02:45:00;;;;;;;44.47;23.53;;;3.70;53.40;;;;;;5083865;28;20483;-60
2022/03/26 02:47:26;;;;;;;55.27;26.10;;;3.70;53.50;;;;;;5077716;28;20476;-60
2022/03/26 02:49:51;;;;;;;55.10;24.43;;;3.70;53.60;;;;;;5080582;28;20412;-60
2022/03/26 02:52:17;;;;;;;54.23;23.57;;;3.70;53.50;;;;;;5089177;28;20170;-60
2022/03/26 02:54:43;;;;;;;50.77;25.50;;;3.60;53.40;;;;;;5081363;28;20442;-60
2022/03/26 02:57:09;;;;;;;49.50;24.13;;;3.60;53.50;;;;;;5081539;28;20979;-60
2022/03/26 02:59:35;;;;;;;53.10;25.47;;;3.60;53.60;;;;;;5088353;28;20196;-59
2022/03/26 03:02:01;;;;;;;59.27;27.70;;;3.60;53.80;;;;;;5087123;28;20459;-59
2022/03/26 03:04:26;;;;;;;53.83;25.87;;;3.60;54.00;;;;;;5087784;28;20202;-60
2022/03/26 03:06:52;;;;;;;50.60;23.83;;;3.60;54.10;;;;;;5087252;28;20165;-60
2022/03/26 03:09:18;;;;;;;54.17;27.47;;;3.50;54.30;;;;;;5076689;28;20191;-59
2022/03/26 03:11:44;;;;;;;51.47;24.07;;;3.60;54.50;;;;;;5087994;28;20603;-60
2022/03/26 03:14:10;;;;;;;51.90;25.67;;;3.60;54.50;;;;;;5086034;28;20455;-60
2022/03/26 03:16:37;;;;;;;51.03;26.20;;;3.60;54.50;;;;;;5078220;28;20696;-59
2022/03/26 03:19:06;;;;;;;47.40;23.97;;;3.50;54.30;;;;;;5082051;28;20449;-59
2022/03/26 03:21:32;;;;;;;49.23;24.50;;;3.50;54.40;;;;;;5087903;28;20418;-60
2022/03/26 03:23:58;;;;;;;60.33;25.10;;;3.50;54.50;;;;;;5081234;28;20435;-60
2022/03/26 03:26:23;;;;;;;50.20;25.83;;;3.40;54.40;;;;;;5084001;28;20451;-59
2022/03/26 03:28:49;;;;;;;49.57;24.93;;;3.40;55.00;;;;;;5078611;28;20558;-58
2022/03/26 03:31:14;;;;;;;51.50;25.03;;;3.40;54.60;;;;;;5084815;28;20264;-59
2022/03/26 03:33:40;;;;;;;49.40;23.73;;;3.30;54.60;;;;;;5076759;28;20174;-59
2022/03/26 03:36:06;;;;;;;55.70;26.50;;;3.30;54.50;;;;;;5088524;28;20709;-59
2022/03/26 03:38:32;;;;;;;57.47;26.70;;;3.20;54.60;;;;;;5085633;28;20201;-60
2022/03/26 03:40:58;;;;;;;54.97;25.13;;;3.20;54.80;;;;;;5088700;28;20178;-60
2022/03/26 03:43:24;;;;;;;54.67;25.60;;;3.20;54.90;;;;;;5086685;28;20432;-60
2022/03/26 03:45:50;;;;;;;52.20;25.70;;;3.20;55.10;;;;;;5073220;28;20444;-59
2022/03/26 03:48:16;;;;;;;55.17;26.10;;;3.20;55.30;;;;;;5085336;28;20201;-59
2022/03/26 03:50:43;;;;;;;46.13;24.20;;;3.20;55.40;;;;;;5091351;28;20418;-60
2022/03/26 03:53:09;;;;;;;54.40;24.93;;;3.20;55.30;;;;;;5091940;28;20522;-60
2022/03/26 03:55:35;;;;;;;51.17;24.40;;;3.20;55.40;;;;;;5088562;28;20878;-59
2022/03/26 03:58:01;;;;;;;46.33;23.20;;;3.20;55.30;;;;;;5090523;28;20266;-59
2022/03/26 04:00:26;;;;;;;49.50;24.37;;;3.10;55.20;;;;;;5081945;28;20824;-60
2022/03/26 04:02:53;;;;;;;51.23;24.13;;;3.10;55.20;;;;;;5082854;28;20201;-59
2022/03/26 04:05:19;;;;;;;46.17;24.37;;;3.10;55.30;;;;;;5077614;28;20239;-59
2022/03/26 04:07:45;;;;;;;52.47;24.40;;;3.10;55.60;;;;;;5087437;28;21029;-59
2022/03/26 04:10:10;;;;;;;49.43;23.93;;;3.10;55.80;;;;;;5091259;28;20201;-60
2022/03/26 04:12:41;;;;;;;54.20;25.77;;;3.00;55.70;;;;;;5090195;28;20707;-59
2022/03/26 04:15:09;;;;;;;47.90;24.90;;;3.00;55.80;;;;;;5090223;28;20643;-60
2022/03/26 04:17:35;;;;;;;57.37;25.57;;;3.00;55.80;;;;;;5088203;28;20453;-59
2022/03/26 04:20:03;;;;;;;54.63;25.50;;;3.00;55.70;;;;;;5085226;28;20521;-59
2022/03/26 04:22:29;;;;;;;51.30;23.50;;;2.90;55.70;;;;;;5081581;28;20504;-60
2022/03/26 04:24:55;;;;;;;50.17;24.47;;;2.90;55.90;;;;;;5087182;28;20546;-59
2022/03/26 04:27:21;;;;;;;51.10;24.50;;;2.90;56.10;;;;;;5090543;28;20420;-60
2022/03/26 04:29:47;;;;;;;55.70;24.90;;;2.90;56.30;;;;;;5080332;28;20439;-59
2022/03/26 04:32:12;;;;;;;49.80;23.67;;;2.90;56.50;;;;;;5079727;28;20173;-59
2022/03/26 04:34:38;;;;;;;50.40;24.00;;;2.80;56.50;;;;;;5085940;28;20177;-60
2022/03/26 04:37:05;;;;;;;50.03;25.03;;;2.80;56.60;;;;;;5084030;28;20181;-60
2022/03/26 04:39:31;;;;;;;55.63;24.80;;;2.80;56.70;;;;;;5088089;28;20186;-60
2022/03/26 04:41:57;;;;;;;50.47;25.30;;;2.80;56.90;;;;;;5090007;28;20506;-58
2022/03/26 04:44:23;;;;;;;47.97;23.87;;;2.80;56.90;;;;;;5085911;28;20519;-60
2022/03/26 04:46:48;;;;;;;57.57;25.57;;;2.80;57.30;;;;;;5082099;28;20181;-59
2022/03/26 04:49:14;;;;;;;46.50;25.23;;;2.80;57.40;;;;;;5080645;28;20211;-60
2022/03/26 04:51:39;;;;;;;51.07;24.70;;;2.80;57.60;;;;;;5087854;28;20173;-59
2022/03/26 04:54:05;;;;;;;52.23;25.33;;;2.70;57.70;;;;;;5086977;28;20176;-59
2022/03/26 04:56:31;;;;;;;54.00;24.87;;;2.70;57.80;;;;;;5086974;28;20180;-59
2022/03/26 04:58:57;;;;;;;62.27;26.33;;;2.70;57.80;;;;;;5079625;28;20198;-60
2022/03/26 05:01:23;;;;;;;51.90;27.80;;;2.70;57.80;;;;;;5073510;28;20664;-59
2022/03/26 05:03:49;;;;;;;52.50;26.13;;;2.70;58.10;;;;;;5083708;28;20510;-60
2022/03/26 05:06:15;;;;;;;52.17;25.50;;;2.70;58.30;;;;;;5074903;28;20285;-60
2022/03/26 05:08:41;;;;;;;57.00;25.90;;;2.70;58.50;;;;;;5084892;28;20193;-60
2022/03/26 05:11:06;;;;;;;58.53;25.40;;;2.70;58.70;;;;;;5089674;28;20418;-59
2022/03/26 05:13:32;;;;;;;68.23;26.87;;;2.70;59.00;;;;;;5084680;28;20624;-60
2022/03/26 05:15:58;;;;;;;52.97;26.60;;;2.80;59.40;;;;;;5076225;28;20174;-59
2022/03/26 05:18:24;;;;;;;47.43;24.87;;;2.80;59.30;;;;;;5079812;28;20196;-59
2022/03/26 05:20:50;;;;;;;49.20;23.83;;;2.80;59.40;;;;;;5088519;28;20188;-59
2022/03/26 05:23:15;;;;;;;50.80;24.53;;;2.80;59.30;;;;;;5081744;28;20429;-60
2022/03/26 05:25:41;;;;;;;54.27;24.30;;;2.80;59.00;;;;;;5086549;28;20247;-60
2022/03/26 05:28:07;;;;;;;51.57;25.60;;;2.80;58.90;;;;;;5085237;28;20213;-61
2022/03/26 05:30:32;;;;;;;49.70;23.80;;;2.80;59.10;;;;;;5088467;28;20166;-59
2022/03/26 05:33:00;;;;;;;57.70;26.43;;;2.70;59.30;;;;;;5090451;28;20198;-60
2022/03/26 05:35:26;;;;;;;49.30;24.33;;;2.80;59.40;;;;;;5086252;28;20174;-59
2022/03/26 05:37:52;;;;;;;48.13;25.30;;;2.80;59.10;;;;;;5083445;28;20452;-59
2022/03/26 05:40:19;;;;;;;51.40;25.70;;;2.80;59.20;;;;;;5078009;28;20766;-59
2022/03/26 05:42:46;;;;;;;50.40;25.33;;;2.70;59.00;;;;;;5081039;28;20181;-60
2022/03/26 05:45:12;;;;;;;48.13;24.63;;;2.70;59.20;;;;;;5088477;28;20557;-60
2022/03/26 05:47:38;;;;;;;48.03;24.40;;;2.70;59.30;;;;;;5086981;28;20486;-60
2022/03/26 05:50:07;;;;;;;55.60;25.37;;;2.70;59.50;;;;;;5087772;28;20445;-59
2022/03/26 05:52:32;;;;;;;48.90;23.73;;;2.70;59.90;;;;;;5081261;28;20835;-59
2022/03/26 05:54:58;;;;;;;49.23;24.47;;;2.70;60.60;;;;;;5077947;28;21013;-60
2022/03/26 05:57:24;;;;;;;44.43;23.17;;;2.70;61.20;;;;;;5087810;28;20196;-60
2022/03/26 05:59:50;;;;;;;48.57;24.87;;;2.80;61.30;;;;;;5085467;28;20182;-60
2022/03/26 06:02:15;;;;;;;49.93;23.80;;;2.80;61.10;;;;;;5078287;28;20173;-60
2022/03/26 06:04:42;;;;;;;45.63;24.30;;;2.80;61.10;;;;;;5075865;28;20283;-60
2022/03/26 06:07:08;;;;;;;58.53;25.17;;;2.90;61.30;;;;;;5084944;28;20170;-60
2022/03/26 06:09:35;;;;;;;54.13;25.37;;;3.00;61.50;;;;;;5078209;28;20448;-59
2022/03/26 06:12:01;;;;;;;53.30;23.80;;;3.10;61.60;;;;;;5082457;28;20423;-59
2022/03/26 06:14:27;;;;;;;53.97;25.03;;;3.10;61.50;;;;;;5086361;28;20427;-60
2022/03/26 06:16:52;;;;;;;57.23;25.50;;;3.20;61.30;;;;;;5086750;28;20165;-60
2022/03/26 06:19:18;;;;;;;51.07;25.53;;;3.30;61.80;;;;;;5086878;28;20182;-60
2022/03/26 06:21:43;;;;;;;54.53;24.80;;;3.40;61.40;;;;;;5084302;28;20966;-59
2022/03/26 06:24:10;;;;;;;55.47;25.17;;;3.50;61.20;;;;;;5079816;28;20173;-59
2022/03/26 06:26:37;;;;;;;52.33;25.57;;;3.60;60.30;;;;;;5076792;28;20286;-60
2022/03/26 06:29:04;;;;;;;52.07;26.13;;;3.70;60.00;;;;;;5087087;28;20455;-60
2022/03/26 06:31:30;;;;;;;50.63;25.93;;;3.70;59.60;;;;;;5085241;28;20475;-60
2022/03/26 06:33:55;;;;;;;49.40;23.70;;;3.80;59.80;;;;;;5086555;28;20990;-59
2022/03/26 06:36:22;;;;;;;52.20;25.13;;;4.00;59.90;;;;;;5085457;28;20243;-60
2022/03/26 06:38:48;;;;;;;48.97;23.13;;;4.10;59.70;;;;;;5082349;28;20221;-59
2022/03/26 06:41:14;;;;;;;49.60;25.23;;;4.20;59.50;;;;;;5087259;28;21113;-60
2022/03/26 06:43:41;;;;;;;53.87;26.23;;;4.30;59.30;;;;;;5087575;28;20439;-59
2022/03/26 06:46:07;;;;;;;49.57;24.80;;;4.40;59.00;;;;;;5082436;28;21074;-60
2022/03/26 06:48:33;;;;;;;48.00;24.27;;;4.60;58.50;;;;;;5085673;28;20522;-59
2022/03/26 06:51:03;;;;;;;59.20;26.30;;;4.70;58.20;;;;;;5072485;28;20512;-60
2022/03/26 06:53:30;;;;;;;53.80;25.27;;;4.90;57.70;;;;;;5082801;28;20440;-60
2022/03/26 06:55:56;;;;;;;54.87;24.80;;;5.00;57.10;;;;;;5080672;28;20428;-59
2022/03/26 06:58:22;;;;;;;52.40;25.37;;;5.20;56.90;;;;;;5088685;28;20446;-60
2022/03/26 07:00:48;;;;;;;53.07;25.00;;;5.30;56.80;;;;;;5082002;28;20228;-60
2022/03/26 07:03:13;;;;;;;55.03;23.93;;;5.50;56.50;;;;;;5083532;28;20436;-60
2022/03/26 07:05:39;;;;;;;56.17;25.80;;;5.70;56.30;;;;;;5081965;28;20280;-59
2022/03/26 07:08:05;;;;;;;61.73;23.97;;;5.80;56.00;;;;;;5073945;28;20226;-60
2022/03/26 07:10:31;;;;;;;62.83;27.77;;;6.00;55.80;;;;;;5073052;28;20181;-60
2022/03/26 07:12:57;;;;;;;57.10;25.20;;;6.10;55.40;;;;;;5081136;28;20945;-60
2022/03/26 07:15:23;;;;;;;58.40;24.43;;;6.30;55.10;;;;;;5079894;28;20182;-60
2022/03/26 07:17:48;;;;;;;50.00;24.23;;;6.50;54.90;;;;;;5076786;28;20467;-60
2022/03/26 07:20:14;;;;;;;52.23;25.10;;;6.60;54.50;;;;;;5079444;28;20646;-60
2022/03/26 07:22:41;;;;;;;57.33;25.73;;;6.80;54.50;;;;;;5091775;28;20181;-60
2022/03/26 07:25:08;;;;;;;49.47;23.00;;;6.90;54.40;;;;;;5083732;28;20605;-60
2022/03/26 07:27:35;;;;;;;52.93;24.03;;;7.10;53.70;;;;;;5081524;28;20474;-60
2022/03/26 07:30:01;;;;;;;50.73;26.30;;;7.20;53.00;;;;;;5086168;28;20417;-60
2022/03/26 07:32:27;;;;;;;53.77;26.37;;;7.40;52.30;;;;;;5088708;28;20421;-60
2022/03/26 07:34:53;;;;;;;61.67;26.67;;;7.60;51.60;;;;;;5085096;28;20424;-60
2022/03/26 07:37:20;;;;;;;70.53;30.00;;;7.70;50.80;;;;;;5089054;28;20943;-60
2022/03/26 07:39:46;;;;;;;63.03;27.30;;;7.90;50.20;;;;;;5090842;28;20427;-59
2022/03/26 07:42:12;;;;;;;56.60;25.90;;;8.00;50.40;;;;;;5087826;28;20478;-60
2022/03/26 07:44:37;;;;;;;52.97;25.43;;;8.20;49.60;;;;;;5076495;28;21100;-59
2022/03/26 07:47:03;;;;;;;56.37;26.37;;;8.30;49.10;;;;;;5088417;28;20537;-60
2022/03/26 07:49:29;;;;;;;62.23;26.07;;;8.40;48.90;;;;;;5084024;28;20957;-60
2022/03/26 07:51:55;;;;;;;54.57;26.47;;;8.60;48.80;;;;;;5080959;28;20417;-60
2022/03/26 07:54:20;;;;;;;52.40;25.87;;;8.70;48.60;;;;;;5090907;28;20693;-60
2022/03/26 07:56:46;;;;;;;52.10;25.80;;;8.80;48.10;;;;;;5090139;28;20158;-60
2022/03/26 07:59:12;;;;;;;53.40;25.83;;;8.90;47.80;;;;;;5089651;28;20186;-60
2022/03/26 08:01:38;;;;;;;53.10;26.47;;;9.00;48.00;;;;;;5079304;28;20446;-60
2022/03/26 08:04:04;;;;;;;51.90;25.83;;;9.10;47.50;;;;;;5084833;28;20184;-60
2022/03/26 08:06:30;;;;;;;54.60;25.00;;;9.20;47.50;;;;;;5078686;28;20202;-59
2022/03/26 08:08:55;;;;;;;59.47;26.10;;;9.40;47.30;;;;;;5085227;28;20269;-60
2022/03/26 08:11:21;;;;;;;55.13;26.13;;;9.50;47.50;;;;;;5089329;28;20548;-60
2022/03/26 08:13:46;;;;;;;64.10;25.53;;;9.60;47.30;;;;;;5078945;28;20246;-60
2022/03/26 08:16:12;;;;;;;49.03;23.67;;;9.70;47.40;;;;;;5081295;28;20256;-60
2022/03/26 08:18:38;;;;;;;51.90;24.87;;;9.80;47.20;;;;;;5085034;28;20190;-60
2022/03/26 08:21:05;;;;;;;52.97;25.73;;;10.00;46.00;;;;;;5079815;28;20905;-60
2022/03/26 08:23:30;;;;;;;53.90;26.70;;;10.10;46.00;;;;;;5082954;28;20181;-60
2022/03/26 08:28:40;;;;;;;52.40;25.53;;;10.30;45.10;;;;;;5081506;28;20255;-60
2022/03/26 08:31:10;;;;;;;56.33;26.17;;;10.50;44.80;;;;;;5082199;28;20537;-58
2022/03/26 08:33:36;;;;;;;54.23;26.47;;;10.60;44.40;;;;;;5082201;28;20598;-60
2022/03/26 08:36:03;;;;;;;48.23;26.30;;;10.70;44.30;;;;;;5081403;28;20428;-59
2022/03/26 08:38:28;;;;;;;58.40;24.73;;;10.90;44.40;;;;;;5089102;28;20906;-59
2022/03/26 08:40:54;;;;;;;60.27;25.50;;;11.00;44.20;;;;;;5089644;28;20419;-59
2022/03/26 08:43:20;;;;;;;57.10;26.40;;;11.20;44.00;;;;;;5085146;28;20756;-60
2022/03/26 08:45:46;;;;;;;54.70;25.13;;;11.30;43.70;;;;;;5080507;28;20225;-60
2022/03/26 08:48:12;;;;;;;59.87;26.57;;;11.40;43.00;;;;;;5086822;28;20276;-58
2022/03/26 08:50:38;;;;;;;50.90;24.60;;;11.50;42.90;;;;;;5075592;28;20550;-57
2022/03/26 08:53:03;;;;;;;59.00;25.53;;;11.70;43.30;;;;;;5084408;28;20173;-59
2022/03/26 08:55:29;;;;;;;51.43;25.40;;;11.90;43.90;;;;;;5079565;28;20420;-59
2022/03/26 08:57:57;;;;;;;54.77;24.90;;;12.10;42.40;;;;;;5079185;28;20735;-61
2022/03/26 09:00:23;;;;;;;48.20;25.03;;;12.20;41.70;;;;;;5085806;28;20189;-61
2022/03/26 09:02:48;;;;;;;48.57;24.40;;;12.40;41.90;;;;;;5079742;28;20452;-61
2022/03/26 09:05:15;;;;;;;54.83;25.83;;;12.50;41.50;;;;;;5081426;28;20456;-62
2022/03/26 09:07:41;;;;;;;48.03;25.10;;;12.60;41.40;;;;;;5085419;28;20201;-61
2022/03/26 09:10:08;;;;;;;50.67;24.90;;;12.80;40.60;;;;;;5082410;28;20424;-61
2022/03/26 09:12:34;;;;;;;46.30;25.40;;;12.80;40.30;;;;;;5082634;28;20526;-61
2022/03/26 09:15:00;;;;;;;51.00;26.77;;;12.90;40.30;;;;;;5078173;28;20745;-62
2022/03/26 09:17:26;;;;;;;55.17;26.33;;;13.10;40.60;;;;;;5080838;28;20944;-63
2022/03/26 09:19:51;;;;;;;54.50;26.63;;;13.20;39.60;;;;;;5077366;28;20435;-63
2022/03/26 09:22:17;;;;;;;64.83;26.77;;;13.30;39.70;;;;;;5085515;28;20207;-61
2022/03/26 09:24:43;;;;;;;56.50;26.07;;;13.50;38.90;;;;;;5072013;28;20306;-61
2022/03/26 09:27:09;;;;;;;46.63;24.87;;;13.60;39.40;;;;;;5086258;28;20558;-61
2022/03/26 09:29:36;;;;;;;59.33;25.77;;;13.80;38.80;;;;;;5083335;28;20201;-63
2022/03/26 09:32:02;;;;;;;49.40;25.87;;;13.90;38.50;;;;;;5077068;28;20429;-61
2022/03/26 09:34:28;;;;;;;59.53;27.40;;;14.00;37.80;;;;;;5082280;28;20431;-62
2022/03/26 09:36:53;;;;;;;47.43;25.77;;;14.10;37.00;;;;;;5081331;28;20503;-62
2022/03/26 09:39:20;;;;;;;60.20;26.27;;;14.10;37.00;;;;;;5079906;28;21930;-62
2022/03/26 09:41:47;;;;;;;51.07;26.40;;;14.20;37.50;;;;;;5077474;28;20265;-61
2022/03/26 09:44:13;;;;;;;48.80;26.13;;;14.40;36.40;;;;;;5074041;28;20424;-62
2022/03/26 09:46:39;;;;;;;55.40;24.60;;;14.50;36.80;;;;;;5081528;28;21018;-63
2022/03/26 09:49:05;;;;;;;53.00;25.73;;;14.60;37.10;;;;;;5072512;28;20443;-62
2022/03/26 09:51:32;;;;;;;44.13;25.43;;;14.70;36.20;;;;;;5077121;28;20206;-61
2022/03/26 09:53:58;;;;;;;57.00;25.57;;;14.80;35.80;;;;;;5075211;28;20427;-61
2022/03/26 09:56:25;;;;;;;56.43;26.70;;;14.90;35.70;;;;;;5080858;28;20424;-63
2022/03/26 09:58:52;;;;;;;50.37;25.90;;;15.00;35.70;;;;;;5073284;28;20206;-61
2022/03/26 10:01:19;;;;;;;50.03;25.13;;;15.10;35.10;;;;;;5080545;28;20573;-62
2022/03/26 10:04:10;;;;;;;59.20;24.23;;;15.20;34.50;;;;;;5078862;28;20432;-61
2022/03/26 10:06:35;;;;;;;57.40;25.17;;;15.40;33.10;;;;;;5084489;28;21100;-62
2022/03/26 10:09:01;;;;;;;56.80;25.73;;;15.50;33.30;;;;;;5082190;28;20526;-62
2022/03/26 10:11:32;;;;;;;50.33;23.07;;;15.60;33.20;;;;;;5079450;28;20263;-61
2022/03/26 10:13:58;;;;;;;54.37;25.17;;;15.60;32.70;;;;;;5099056;28;20543;-61
2022/03/26 10:16:24;;;;;;;54.43;25.57;;;15.60;32.80;;;;;;5077522;28;20483;-62
2022/03/26 10:18:54;;;;;;;62.00;26.77;;;15.70;32.60;;;;;;5077070;28;21094;-61
2022/03/26 10:21:23;;;;;;;49.93;24.93;;;15.80;32.80;;;;;;5080629;28;20180;-62
2022/03/26 10:23:53;;;;;;;41.80;24.23;;;15.90;32.70;;;;;;5083380;28;20472;-61
2022/03/26 10:26:25;;;;;;;48.53;25.70;;;16.00;32.10;;;;;;5084769;28;20487;-61
2022/03/26 10:28:56;;;;;;;50.50;26.13;;;16.10;32.40;;;;;;5083213;28;20848;-61
2022/03/26 10:34:16;;;;;;;54.77;24.90;;;16.30;31.60;;;;;;5080982;28;20432;-62
2022/03/26 10:36:57;;;;;;;46.97;23.40;;;16.30;31.50;;;;;;5084095;28;20951;-60
2022/03/26 10:39:25;;;;;;;46.13;24.80;;;16.40;31.30;;;;;;5081780;28;20820;-62
2022/03/26 10:41:55;;;;;;;43.67;24.33;;;16.50;31.10;;;;;;5077362;28;20427;-62
2022/03/26 10:44:30;;;;;;;49.43;25.30;;;16.50;30.90;;;;;;5076021;28;20452;-61
2022/03/26 10:47:01;;;;;;;46.57;25.40;;;16.60;31.20;;;;;;5081871;28;20471;-61
2022/03/26 10:49:30;;;;;;;55.63;25.07;;;16.70;31.40;;;;;;5085242;28;20455;-61
2022/03/26 10:52:03;;;;;;;48.27;24.80;;;16.80;31.00;;;;;;5078465;28;20461;-61
2022/03/26 10:54:33;;;;;;;46.17;24.83;;;16.90;31.30;;;;;;5083606;28;20427;-62
2022/03/26 10:57:00;;;;;;;46.53;24.83;;;17.00;31.40;;;;;;5082261;28;20458;-61
2022/03/26 10:59:27;;;;;;;54.70;26.53;;;17.00;31.50;;;;;;5078888;28;21142;-61
2022/03/26 11:01:53;;;;;;;43.97;23.63;;;17.20;31.80;;;;;;5084428;28;21044;-61
2022/03/26 11:04:19;;;;;;;56.43;24.50;;;17.30;30.70;;;;;;5086332;28;20408;-61
2022/03/26 11:06:47;;;;;;;53.07;23.60;;;17.30;30.00;;;;;;5074932;28;20195;-60
2022/03/26 11:09:15;;;;;;;44.03;23.90;;;17.30;29.80;;;;;;5076457;28;20447;-61
2022/03/26 11:11:42;;;;;;;41.60;23.97;;;17.40;30.10;;;;;;5078669;28;20424;-62
2022/03/26 11:14:16;;;;;;;45.60;23.70;;;17.50;30.00;;;;;;5077069;28;20432;-61
2022/03/26 11:17:00;;;;;;;42.17;23.93;;;17.60;29.70;;;;;;5075823;28;20444;-61
2022/03/26 11:19:37;;;;;;;43.07;22.43;;;17.60;29.80;;;;;;5081606;28;20458;-60
2022/03/26 11:22:08;;;;;;;40.60;22.87;;;17.70;29.60;;;;;;5086694;28;20945;-61
2022/03/26 11:24:37;;;;;;;39.93;21.97;;;17.80;29.70;;;;;;5071340;28;20428;-60
2022/03/26 11:27:24;;;;;;;46.13;21.50;;;17.90;29.20;;;;;;5083072;28;20420;-61
2022/03/26 11:29:56;;;;;;;40.13;23.27;;;17.90;28.90;;;;;;5081741;28;20439;-60
2022/03/26 11:32:43;;;;;;;46.10;23.97;;;18.00;29.10;;;;;;5083565;28;20439;-62
2022/03/26 11:35:14;;;;;;;41.77;22.67;;;18.00;28.70;;;;;;5081587;28;20923;-62
2022/03/26 11:37:58;;;;;;;43.10;24.20;;;18.10;29.20;;;;;;5077883;28;20501;-60
2022/03/26 11:40:50;;;;;;;42.13;23.20;;;18.20;29.10;;;;;;5075373;28;20931;-63
2022/03/26 11:43:19;;;;;;;42.70;23.13;;;18.30;29.40;;;;;;5074438;28;20436;-63
2022/03/26 11:51:22;;;;;;;48.37;25.43;;;18.90;29.70;;;;;;5078404;28;20434;-61
2022/03/26 11:53:51;;;;;;;45.60;24.13;;;19.10;29.20;;;;;;5076385;28;20427;-58
2022/03/26 11:56:24;;;;;;;45.27;24.13;;;19.20;28.90;;;;;;5070501;28;20435;-61
2022/03/26 11:59:16;;;;;;;43.17;23.70;;;19.30;28.60;;;;;;5070347;28;20470;-61
2022/03/26 12:01:47;;;;;;;40.00;23.40;;;19.40;28.90;;;;;;5066812;28;20447;-61
2022/03/26 12:04:18;;;;;;;41.83;23.23;;;19.50;29.00;;;;;;5070348;28;20723;-61
2022/03/26 12:06:46;;;;;;;38.30;22.10;;;19.60;28.60;;;;;;5076092;28;20999;-61
2022/03/26 12:09:33;;;;;;;54.63;24.30;;;19.70;28.60;;;;;;5075838;28;20459;-62
2022/03/26 12:12:05;;;;;;;49.57;23.97;;;19.70;28.80;;;;;;5077174;28;20492;-61
2022/03/26 12:14:35;;;;;;;41.73;22.23;;;19.80;28.60;;;;;;5072507;28;20442;-62
2022/03/26 12:17:02;;;;;;;34.23;21.43;;;19.90;28.40;;;;;;5074154;28;20534;-62
2022/03/26 12:19:41;;;;;;;40.20;21.13;;;20.00;28.80;;;;;;5076851;28;20975;-60
2022/03/26 12:22:17;;;;;;;37.83;20.80;;;20.00;28.90;;;;;;5075818;28;20487;-59
2022/03/26 12:24:43;;;;;;;42.83;22.97;;;20.10;29.50;;;;;;5074829;28;20431;-61
2022/03/26 12:27:09;;;;;;;42.80;25.43;;;20.20;28.80;;;;;;5075883;28;20868;-61
2022/03/26 12:29:38;;;;;;;40.40;23.13;;;20.30;28.10;;;;;;5080034;28;20554;-61
2022/03/26 12:32:04;;;;;;;37.20;20.67;;;20.30;28.60;;;;;;5076572;28;20181;-61
2022/03/26 12:34:30;;;;;;;47.10;22.30;;;20.50;28.00;;;;;;5079334;28;20523;-61
2022/03/26 12:37:03;;;;;;;55.70;22.40;;;20.60;28.10;;;;;;5077357;28;20694;-61
2022/03/26 12:39:29;;;;;;;34.93;19.13;;;20.70;28.60;;;;;;5077324;28;20509;-60
2022/03/26 12:41:56;;;;;;;44.83;24.20;;;20.90;29.20;;;;;;5071568;28;20439;-59
2022/03/26 12:44:23;;;;;;;47.73;24.30;;;21.10;29.20;;;;;;5075810;28;21236;-58